Time;durP1;ratioP1;P1;durP2;ratioP2;P2;SDS_P1;SDS_P2;PMS_P1;PMS_P2;Temp;Humidity;BMP_temperature;BMP_pressure;BME280_temperature;BME280_humidity;BME280_pressure;Samples;Min_cycle;Max_cycle;Signal;HPM_P1;HPM_P2
2020/12/20 00:01:40;;;;;;;69.90;34.05;;;;;;;;;;5092051;28;20034;-52
2020/12/20 00:04:07;;;;;;;71.30;34.95;;;;;;;;;;5089344;28;20028;-52
2020/12/20 00:06:40;;;;;;;71.18;34.42;;;;;;;;;;5087451;28;20036;-52
2020/12/20 00:09:10;;;;;;;66.22;33.03;;;;;;;;;;5084560;28;20039;-52
2020/12/20 00:11:40;;;;;;;75.60;36.10;;;;;;;;;;5090452;28;20518;-52
2020/12/20 00:14:26;;;;;;;77.05;37.08;;;;;;;;;;5090729;28;20028;-51
2020/12/20 00:16:53;;;;;;;82.03;40.83;;;;;;;;;;5089444;28;20408;-53
2020/12/20 00:19:19;;;;;;;79.43;38.63;;;;;;;;;;5090782;28;20031;-53
2020/12/20 00:21:45;;;;;;;74.38;35.50;;;;;;;;;;5089971;28;20042;-54
2020/12/20 00:24:11;;;;;;;69.40;31.88;;;;;;;;;;5091415;28;20391;-52
2020/12/20 00:26:38;;;;;;;67.95;32.40;;;;;;;;;;5077693;28;20035;-54
2020/12/20 00:29:04;;;;;;;64.25;32.05;;;;;;;;;;5091490;28;20020;-54
2020/12/20 00:31:30;;;;;;;62.92;31.05;;;;;;;;;;5090392;28;20029;-53
2020/12/20 00:33:56;;;;;;;70.95;35.05;;;;;;;;;;5089867;28;20020;-52
2020/12/20 00:36:22;;;;;;;65.72;33.10;;;;;;;;;;5091054;28;20047;-54
2020/12/20 00:38:49;;;;;;;74.70;35.08;;;;;;;;;;5091087;28;20032;-52
2020/12/20 00:41:15;;;;;;;73.25;34.45;;;;;;;;;;5081767;28;20028;-52
2020/12/20 00:43:41;;;;;;;64.95;31.75;;;;;;;;;;5083183;28;20035;-52
2020/12/20 00:46:07;;;;;;;62.80;30.73;;;;;;;;;;5075967;28;20029;-54
2020/12/20 00:48:33;;;;;;;62.58;30.55;;;;;;;;;;5074540;28;20037;-54
2020/12/20 00:51:00;;;;;;;56.92;28.75;;;;;;;;;;5071839;28;20029;-53
2020/12/20 00:53:26;;;;;;;57.65;28.40;;;;;;;;;;5072271;28;20091;-54
2020/12/20 00:55:52;;;;;;;64.25;31.27;;;;;;;;;;5077858;28;20498;-52
2020/12/20 00:58:18;;;;;;;62.22;29.42;;;;;;;;;;5075040;28;20576;-52
2020/12/20 01:00:44;;;;;;;71.22;33.53;;;;;;;;;;5077812;28;20061;-53
2020/12/20 01:03:11;;;;;;;76.65;39.75;;;;;;;;;;5077837;28;20028;-54
2020/12/20 01:05:37;;;;;;;69.38;34.78;;;;;;;;;;5076895;28;20012;-53
2020/12/20 01:08:03;;;;;;;65.40;30.48;;;;;;;;;;5077890;28;20043;-54
2020/12/20 01:10:29;;;;;;;78.10;36.45;;;;;;;;;;5075926;28;20028;-52
2020/12/20 01:12:55;;;;;;;72.60;34.88;;;;;;;;;;5074909;28;20028;-54
2020/12/20 01:15:21;;;;;;;67.47;34.20;;;;;;;;;;5080172;28;20399;-53
2020/12/20 01:17:47;;;;;;;89.00;42.10;;;;;;;;;;5078502;28;20021;-53
2020/12/20 01:20:13;;;;;;;89.55;43.67;;;;;;;;;;5092999;28;20031;-54
2020/12/20 01:22:39;;;;;;;76.72;37.10;;;;;;;;;;5094670;28;20016;-54
2020/12/20 01:25:05;;;;;;;85.20;37.65;;;;;;;;;;5094537;28;20550;-52
2020/12/20 01:27:31;;;;;;;70.63;33.80;;;;;;;;;;5094501;28;20016;-54
2020/12/20 01:29:57;;;;;;;68.85;32.03;;;;;;;;;;5094260;28;20085;-51
2020/12/20 01:32:23;;;;;;;72.25;33.40;;;;;;;;;;5094514;28;20451;-51
2020/12/20 01:34:49;;;;;;;77.03;36.75;;;;;;;;;;5094642;28;20486;-53
2020/12/20 01:37:15;;;;;;;76.38;36.70;;;;;;;;;;5094425;28;20036;-52
2020/12/20 01:39:41;;;;;;;74.55;37.58;;;;;;;;;;5091970;28;20031;-54
2020/12/20 01:42:07;;;;;;;76.13;36.45;;;;;;;;;;5090139;28;20031;-54
2020/12/20 01:44:33;;;;;;;73.47;35.17;;;;;;;;;;5094426;28;20012;-52
2020/12/20 01:47:00;;;;;;;67.72;33.40;;;;;;;;;;5089925;28;20048;-54
2020/12/20 01:49:26;;;;;;;69.20;32.88;;;;;;;;;;5094065;28;20078;-54
2020/12/20 01:51:52;;;;;;;70.38;32.83;;;;;;;;;;5094982;28;20027;-54
2020/12/20 01:54:19;;;;;;;72.00;32.70;;;;;;;;;;5078081;28;20092;-53
2020/12/20 01:56:46;;;;;;;70.93;33.17;;;;;;;;;;5075111;28;20083;-54
2020/12/20 01:59:12;;;;;;;73.53;34.75;;;;;;;;;;5074744;28;20036;-53
2020/12/20 02:01:38;;;;;;;79.13;33.92;;;;;;;;;;5073939;28;20024;-53
2020/12/20 02:04:04;;;;;;;70.65;33.65;;;;;;;;;;5085999;28;20031;-54
2020/12/20 02:06:30;;;;;;;72.10;33.47;;;;;;;;;;5094449;28;20480;-54
2020/12/20 02:08:56;;;;;;;72.95;33.30;;;;;;;;;;5090924;28;20028;-54
2020/12/20 02:11:22;;;;;;;67.93;32.63;;;;;;;;;;5080368;28;20468;-54
2020/12/20 02:13:52;;;;;;;66.32;30.63;;;;;;;;;;5076149;28;20059;-54
2020/12/20 02:16:19;;;;;;;63.03;30.77;;;;;;;;;;5088492;28;20021;-55
2020/12/20 02:18:45;;;;;;;63.10;31.23;;;;;;;;;;5079798;28;20113;-54
2020/12/20 02:21:12;;;;;;;62.72;30.10;;;;;;;;;;5075652;28;20035;-54
2020/12/20 02:23:39;;;;;;;70.63;31.88;;;;;;;;;;5086877;28;20344;-54
2020/12/20 02:26:05;;;;;;;69.78;32.17;;;;;;;;;;5074510;28;20492;-54
2020/12/20 02:28:31;;;;;;;64.45;31.33;;;;;;;;;;5074507;28;20031;-53
2020/12/20 02:30:57;;;;;;;65.68;31.08;;;;;;;;;;5072803;28;20020;-54
2020/12/20 02:33:23;;;;;;;67.47;31.50;;;;;;;;;;5057731;28;20036;-53
2020/12/20 02:35:49;;;;;;;70.90;32.97;;;;;;;;;;5054597;28;20013;-52
2020/12/20 02:38:15;;;;;;;68.20;31.80;;;;;;;;;;5055209;28;20025;-53
2020/12/20 02:40:41;;;;;;;65.13;30.58;;;;;;;;;;5053956;28;20024;-53
2020/12/20 02:43:07;;;;;;;65.15;30.40;;;;;;;;;;5053394;28;20033;-52
2020/12/20 02:45:34;;;;;;;70.97;34.35;;;;;;;;;;5054661;28;20021;-52
2020/12/20 02:48:00;;;;;;;69.05;32.35;;;;;;;;;;5057085;28;20049;-52
2020/12/20 02:50:26;;;;;;;67.75;30.88;;;;;;;;;;5058473;28;20074;-53
2020/12/20 02:52:52;;;;;;;67.43;32.17;;;;;;;;;;5055139;28;20049;-53
2020/12/20 02:55:18;;;;;;;68.80;30.45;;;;;;;;;;5055527;28;20025;-54
2020/12/20 02:57:44;;;;;;;62.70;29.65;;;;;;;;;;5053574;28;20036;-53
2020/12/20 03:00:10;;;;;;;64.15;29.67;;;;;;;;;;5053505;28;20023;-54
2020/12/20 03:02:36;;;;;;;62.45;29.83;;;;;;;;;;5057197;28;20029;-52
2020/12/20 03:05:02;;;;;;;63.20;29.83;;;;;;;;;;5052614;28;20071;-52
2020/12/20 03:07:28;;;;;;;60.08;28.85;;;;;;;;;;5059313;28;20035;-53
2020/12/20 03:09:54;;;;;;;61.35;29.92;;;;;;;;;;5054166;28;20025;-53
2020/12/20 03:12:22;;;;;;;59.22;29.33;;;;;;;;;;5055160;28;20027;-54
2020/12/20 03:14:48;;;;;;;61.35;28.55;;;;;;;;;;5057932;28;20465;-52
2020/12/20 03:17:14;;;;;;;59.35;28.48;;;;;;;;;;5067942;28;20020;-51
2020/12/20 03:19:40;;;;;;;62.30;28.45;;;;;;;;;;5067738;28;20047;-51
2020/12/20 03:22:07;;;;;;;61.13;29.35;;;;;;;;;;5071924;28;20032;-54
2020/12/20 03:24:33;;;;;;;56.72;27.95;;;;;;;;;;5072306;28;20020;-51
2020/12/20 03:26:59;;;;;;;62.25;28.48;;;;;;;;;;5072547;28;20024;-52
2020/12/20 03:29:25;;;;;;;62.60;28.88;;;;;;;;;;5072545;28;20107;-52
2020/12/20 03:31:51;;;;;;;57.35;27.75;;;;;;;;;;5072107;28;20028;-53
2020/12/20 03:34:17;;;;;;;59.08;27.60;;;;;;;;;;5072281;28;20039;-52
2020/12/20 03:36:43;;;;;;;54.75;26.25;;;;;;;;;;5071979;28;20024;-53
2020/12/20 03:39:09;;;;;;;57.80;27.45;;;;;;;;;;5071896;28;20047;-51
2020/12/20 03:41:35;;;;;;;57.92;28.45;;;;;;;;;;5072516;28;20423;-53
2020/12/20 03:44:01;;;;;;;58.42;27.50;;;;;;;;;;5072020;28;20032;-54
2020/12/20 03:46:27;;;;;;;60.40;27.63;;;;;;;;;;5071470;28;20396;-54
2020/12/20 03:48:53;;;;;;;73.72;34.63;;;;;;;;;;5071747;28;20071;-54
2020/12/20 03:51:19;;;;;;;62.80;28.13;;;;;;;;;;5072137;28;20380;-52
2020/12/20 03:53:45;;;;;;;61.53;29.05;;;;;;;;;;5071224;28;20046;-53
2020/12/20 03:56:11;;;;;;;68.15;31.33;;;;;;;;;;5072038;28;20052;-53
2020/12/20 03:58:37;;;;;;;61.45;28.50;;;;;;;;;;5071789;28;20041;-53
2020/12/20 04:01:04;;;;;;;63.88;31.20;;;;;;;;;;5071734;28;20738;-53
2020/12/20 04:03:30;;;;;;;59.47;28.30;;;;;;;;;;5072027;28;20440;-53
2020/12/20 04:05:56;;;;;;;66.32;30.98;;;;;;;;;;5071768;28;20012;-53
2020/12/20 04:08:22;;;;;;;59.88;29.17;;;;;;;;;;5072407;28;20361;-53
2020/12/20 04:10:48;;;;;;;65.80;31.40;;;;;;;;;;5071502;28;20396;-51
2020/12/20 04:13:14;;;;;;;58.70;28.35;;;;;;;;;;5071790;28;20029;-53
2020/12/20 04:15:40;;;;;;;60.78;28.30;;;;;;;;;;5071533;28;20025;-53
2020/12/20 04:18:06;;;;;;;60.00;28.67;;;;;;;;;;5068540;28;20063;-53
2020/12/20 04:20:32;;;;;;;59.63;29.30;;;;;;;;;;5052122;28;20399;-51
2020/12/20 04:22:58;;;;;;;59.75;27.52;;;;;;;;;;5064444;28;20555;-53
2020/12/20 04:25:24;;;;;;;60.70;28.50;;;;;;;;;;5071794;28;20067;-54
2020/12/20 04:27:50;;;;;;;63.80;29.65;;;;;;;;;;5071259;28;20024;-52
2020/12/20 04:30:16;;;;;;;57.33;28.10;;;;;;;;;;5071459;28;20357;-54
2020/12/20 04:32:42;;;;;;;60.20;27.75;;;;;;;;;;5072085;28;20021;-55
2020/12/20 04:35:11;;;;;;;55.85;27.17;;;;;;;;;;5062453;28;20376;-54
2020/12/20 04:37:37;;;;;;;57.20;26.73;;;;;;;;;;5071987;28;20038;-54
2020/12/20 04:40:04;;;;;;;61.63;28.35;;;;;;;;;;5071547;28;20114;-54
2020/12/20 04:42:30;;;;;;;60.15;27.20;;;;;;;;;;5071898;28;20024;-55
2020/12/20 04:44:57;;;;;;;58.75;27.67;;;;;;;;;;5071744;28;20052;-54
2020/12/20 04:47:24;;;;;;;58.95;27.13;;;;;;;;;;5071882;28;20095;-52
2020/12/20 04:49:51;;;;;;;57.08;27.33;;;;;;;;;;5071753;28;20021;-53
2020/12/20 04:52:18;;;;;;;55.00;24.98;;;;;;;;;;5071808;28;20039;-54
2020/12/20 04:54:45;;;;;;;52.72;23.75;;;;;;;;;;5070796;28;20057;-54
2020/12/20 04:57:12;;;;;;;48.25;23.30;;;;;;;;;;5071137;28;20830;-54
2020/12/20 04:59:38;;;;;;;49.72;22.73;;;;;;;;;;5071155;28;20119;-53
2020/12/20 05:02:04;;;;;;;45.30;22.30;;;;;;;;;;5071125;28;20027;-54
2020/12/20 05:04:30;;;;;;;51.28;24.05;;;;;;;;;;5071658;28;20408;-54
2020/12/20 05:06:56;;;;;;;46.75;22.42;;;;;;;;;;5071400;28;20101;-55
2020/12/20 05:09:22;;;;;;;49.55;23.15;;;;;;;;;;5059260;28;20096;-54
2020/12/20 05:11:48;;;;;;;45.47;22.35;;;;;;;;;;5053014;28;20432;-54
2020/12/20 05:14:15;;;;;;;51.85;23.23;;;;;;;;;;5070989;28;20039;-54
2020/12/20 05:16:41;;;;;;;50.33;22.73;;;;;;;;;;5071641;28;20399;-53
2020/12/20 05:19:09;;;;;;;49.47;23.65;;;;;;;;;;5070228;28;20116;-55
2020/12/20 05:21:35;;;;;;;49.63;23.63;;;;;;;;;;5071971;28;20173;-54
2020/12/20 05:24:21;;;;;;;49.22;23.02;;;;;;;;;;5071138;28;20036;-54
2020/12/20 05:26:47;;;;;;;41.08;21.02;;;;;;;;;;5071477;28;20035;-54
2020/12/20 05:29:14;;;;;;;45.50;23.38;;;;;;;;;;5071585;28;20096;-55
2020/12/20 05:31:41;;;;;;;47.38;23.08;;;;;;;;;;5071484;28;20601;-54
2020/12/20 05:34:07;;;;;;;44.83;22.15;;;;;;;;;;5071713;28;20415;-54
2020/12/20 05:36:33;;;;;;;40.60;20.92;;;;;;;;;;5071494;28;20044;-55
2020/12/20 05:39:13;;;;;;;42.63;21.70;;;;;;;;;;5070585;28;20035;-54
2020/12/20 05:41:40;;;;;;;43.63;22.83;;;;;;;;;;5072927;28;20036;-55
2020/12/20 05:44:25;;;;;;;42.22;20.65;;;;;;;;;;5075399;28;20020;-54
2020/12/20 05:46:51;;;;;;;38.95;19.65;;;;;;;;;;5074898;28;20016;-53
2020/12/20 05:49:18;;;;;;;38.70;19.83;;;;;;;;;;5075197;28;20039;-54
2020/12/20 05:52:03;;;;;;;40.42;19.85;;;;;;;;;;5074721;28;20028;-54
2020/12/20 05:54:32;;;;;;;37.92;20.13;;;;;;;;;;5092449;28;20499;-54
2020/12/20 05:57:08;;;;;;;43.75;21.90;;;;;;;;;;5095080;28;20024;-54
2020/12/20 05:59:34;;;;;;;47.17;22.45;;;;;;;;;;5095181;28;20024;-54
2020/12/20 06:02:04;;;;;;;53.45;24.67;;;;;;;;;;5095021;28;20020;-54
2020/12/20 06:04:31;;;;;;;51.05;25.30;;;;;;;;;;5094909;28;20206;-53
2020/12/20 06:06:58;;;;;;;47.85;23.50;;;;;;;;;;5093758;28;20024;-55
2020/12/20 06:09:27;;;;;;;48.72;24.20;;;;;;;;;;5093923;28;20035;-54
2020/12/20 06:11:54;;;;;;;48.08;23.52;;;;;;;;;;5093784;28;20477;-53
2020/12/20 06:14:23;;;;;;;46.13;22.55;;;;;;;;;;5093960;28;20020;-53
2020/12/20 06:17:02;;;;;;;46.72;21.85;;;;;;;;;;5092149;28;20080;-54
2020/12/20 06:19:36;;;;;;;47.53;22.92;;;;;;;;;;5075061;28;20032;-54
2020/12/20 06:22:07;;;;;;;46.75;22.55;;;;;;;;;;5093734;28;20463;-54
2020/12/20 06:24:36;;;;;;;57.72;28.85;;;;;;;;;;5094231;28;20057;-54
2020/12/20 06:27:03;;;;;;;46.50;23.10;;;;;;;;;;5094217;28;20020;-55
2020/12/20 06:29:30;;;;;;;46.58;23.15;;;;;;;;;;5093176;28;20096;-53
2020/12/20 06:31:56;;;;;;;56.17;26.00;;;;;;;;;;5092646;28;20016;-54
2020/12/20 06:34:23;;;;;;;61.60;28.83;;;;;;;;;;5070999;28;20395;-54
2020/12/20 06:36:50;;;;;;;54.92;25.73;;;;;;;;;;5094182;28;20467;-55
2020/12/20 06:39:35;;;;;;;57.88;29.85;;;;;;;;;;5093191;28;20123;-55
2020/12/20 06:42:02;;;;;;;67.28;33.85;;;;;;;;;;5094013;28;20028;-54
2020/12/20 06:44:28;;;;;;;56.78;29.10;;;;;;;;;;5094399;28;20028;-51
2020/12/20 06:46:54;;;;;;;52.38;23.67;;;;;;;;;;5093407;28;20070;-53
2020/12/20 06:49:33;;;;;;;51.28;24.15;;;;;;;;;;5094024;28;20036;-55
2020/12/20 06:52:17;;;;;;;63.28;30.95;;;;;;;;;;5093728;28;20020;-54
2020/12/20 06:55:16;;;;;;;93.90;44.13;;;;;;;;;;5093386;28;20060;-53
2020/12/20 06:58:00;;;;;;;69.50;31.20;;;;;;;;;;5011494;28;20038;-55
2020/12/20 07:00:39;;;;;;;60.28;28.67;;;;;;;;;;5011471;28;20053;-55
2020/12/20 07:03:05;;;;;;;64.78;33.30;;;;;;;;;;4998192;28;20038;-53
2020/12/20 07:05:38;;;;;;;73.55;37.03;;;;;;;;;;5010826;28;20037;-53
2020/12/20 07:08:07;;;;;;;58.80;31.33;;;;;;;;;;5010710;28;20217;-52
2020/12/20 07:10:41;;;;;;;63.78;31.95;;;;;;;;;;5010483;28;20065;-53
2020/12/20 07:13:09;;;;;;;51.55;25.58;;;;;;;;;;5009491;28;20041;-54
2020/12/20 07:15:44;;;;;;;51.38;25.63;;;;;;;;;;5010367;28;20034;-55
2020/12/20 07:18:11;;;;;;;73.55;39.80;;;;;;;;;;5011835;28;20049;-53
2020/12/20 07:20:37;;;;;;;71.03;37.15;;;;;;;;;;5010314;28;20045;-54
2020/12/20 07:23:03;;;;;;;59.17;30.23;;;;;;;;;;5014510;28;20118;-55
2020/12/20 07:25:29;;;;;;;52.58;26.40;;;;;;;;;;5012888;28;20432;-54
2020/12/20 07:27:55;;;;;;;54.63;27.77;;;;;;;;;;5010751;28;20038;-55
2020/12/20 07:30:21;;;;;;;69.18;32.92;;;;;;;;;;5010365;28;20033;-54
2020/12/20 07:32:47;;;;;;;65.72;33.00;;;;;;;;;;5036268;28;20052;-54
2020/12/20 07:35:14;;;;;;;50.38;27.13;;;;;;;;;;5092844;28;20032;-54
2020/12/20 07:37:53;;;;;;;69.93;35.63;;;;;;;;;;5092489;28;20035;-54
2020/12/20 07:40:19;;;;;;;54.55;28.45;;;;;;;;;;5090881;28;20043;-54
2020/12/20 07:42:45;;;;;;;54.25;29.92;;;;;;;;;;5091034;28;20027;-54
2020/12/20 07:45:14;;;;;;;57.08;29.70;;;;;;;;;;5092920;28;20024;-54
2020/12/20 07:47:49;;;;;;;63.67;33.13;;;;;;;;;;5092108;28;20146;-54
2020/12/20 07:50:21;;;;;;;62.15;31.02;;;;;;;;;;5092481;28;20071;-55
2020/12/20 07:52:48;;;;;;;52.45;28.17;;;;;;;;;;5092395;28;20036;-52
2020/12/20 07:55:15;;;;;;;57.40;27.05;;;;;;;;;;5092711;28;20032;-54
2020/12/20 07:57:44;;;;;;;51.35;25.60;;;;;;;;;;5092539;28;20395;-54
2020/12/20 08:00:11;;;;;;;56.13;28.42;;;;;;;;;;5092800;28;20024;-55
2020/12/20 08:02:38;;;;;;;50.72;26.83;;;;;;;;;;5092410;28;20475;-54
2020/12/20 08:05:08;;;;;;;48.50;26.25;;;;;;;;;;5092041;28;20081;-55
2020/12/20 08:07:34;;;;;;;48.47;25.17;;;;;;;;;;5092531;28;20024;-54
2020/12/20 08:10:01;;;;;;;39.90;20.65;;;;;;;;;;5091577;28;20661;-55
2020/12/20 08:12:27;;;;;;;56.28;29.58;;;;;;;;;;5092518;28;20073;-54
2020/12/20 08:15:06;;;;;;;63.50;33.85;;;;;;;;;;5092629;28;20047;-55
2020/12/20 08:17:33;;;;;;;58.20;28.33;;;;;;;;;;5092186;28;20050;-55
2020/12/20 08:20:05;;;;;;;57.60;29.88;;;;;;;;;;5092323;28;20055;-54
2020/12/20 08:22:34;;;;;;;49.10;25.40;;;;;;;;;;5090399;28;20028;-52
2020/12/20 08:25:10;;;;;;;57.00;27.45;;;;;;;;;;5090091;28;20233;-53
2020/12/20 08:27:42;;;;;;;54.38;28.25;;;;;;;;;;5092543;28;20024;-55
2020/12/20 08:30:08;;;;;;;;;;;;;;;;;;5079323;28;20028;-54
2020/12/20 08:32:38;;;;;;;74.93;35.83;;;;;;;;;;5092540;28;20335;-55
2020/12/20 08:35:14;;;;;;;71.82;36.25;;;;;;;;;;5092066;28;20032;-55
2020/12/20 08:37:41;;;;;;;57.83;30.77;;;;;;;;;;5092193;28;20034;-55
2020/12/20 08:40:14;;;;;;;56.20;30.92;;;;;;;;;;5092025;28;20081;-54
2020/12/20 08:42:40;;;;;;;64.95;36.10;;;;;;;;;;5092378;28;20030;-54
2020/12/20 08:45:14;;;;;;;57.83;31.13;;;;;;;;;;5092125;28;20088;-55
2020/12/20 08:47:40;;;;;;;70.47;34.03;;;;;;;;;;5092271;28;20024;-55
2020/12/20 08:50:06;;;;;;;64.95;32.78;;;;;;;;;;5092164;28;20024;-54
2020/12/20 08:52:33;;;;;;;82.32;39.65;;;;;;;;;;5091549;28;20020;-53
2020/12/20 08:55:02;;;;;;;55.83;29.60;;;;;;;;;;5092223;28;20093;-55
2020/12/20 08:57:29;;;;;;;72.22;37.55;;;;;;;;;;5090394;28;20048;-54
2020/12/20 09:00:06;;;;;;;49.70;26.30;;;;;;;;;;5090957;28;20791;-54
2020/12/20 09:02:32;;;;;;;68.72;33.70;;;;;;;;;;5089613;28;20050;-53
2020/12/20 09:05:06;;;;;;;69.90;35.53;;;;;;;;;;5091573;28;20476;-55
2020/12/20 09:07:34;;;;;;;109.45;55.28;;;;;;;;;;5091669;28;20084;-54
2020/12/20 09:10:02;;;;;;;86.60;45.20;;;;;;;;;;5091913;28;20113;-54
2020/12/20 09:12:28;;;;;;;58.28;29.33;;;;;;;;;;5091557;28;20376;-55
2020/12/20 09:14:59;;;;;;;66.63;34.45;;;;;;;;;;5091764;28;20376;-54
2020/12/20 09:17:32;;;;;;;81.90;47.45;;;;;;;;;;5085496;28;20016;-55
2020/12/20 09:19:58;;;;;;;79.22;45.05;;;;;;;;;;5096056;28;20054;-55
2020/12/20 09:22:42;;;;;;;57.83;32.20;;;;;;;;;;5095499;28;20059;-53
2020/12/20 09:25:09;;;;;;;52.28;27.23;;;;;;;;;;5095483;28;20036;-55
2020/12/20 09:27:35;;;;;;;52.00;27.55;;;;;;;;;;5095155;28;20016;-54
2020/12/20 09:30:02;;;;;;;57.90;30.33;;;;;;;;;;5095384;28;20123;-54
2020/12/20 09:32:35;;;;;;;52.72;28.73;;;;;;;;;;5095472;28;20012;-54
2020/12/20 09:35:08;;;;;;;60.55;31.10;;;;;;;;;;5094814;28;20035;-54
2020/12/20 09:37:41;;;;;;;53.15;27.55;;;;;;;;;;5090213;28;20020;-54
2020/12/20 09:40:07;;;;;;;55.85;28.02;;;;;;;;;;5094732;28;20081;-55
2020/12/20 09:42:37;;;;;;;73.55;38.00;;;;;;;;;;5090958;28;20117;-55
2020/12/20 09:45:03;;;;;;;60.05;31.13;;;;;;;;;;5094966;28;20027;-55
2020/12/20 09:47:29;;;;;;;63.05;33.40;;;;;;;;;;5094727;28;20515;-53
2020/12/20 09:49:55;;;;;;;108.75;57.60;;;;;;;;;;5094982;28;20052;-54
2020/12/20 09:52:21;;;;;;;75.85;41.83;;;;;;;;;;5094359;28;20031;-54
2020/12/20 09:54:47;;;;;;;74.32;40.05;;;;;;;;;;5090921;28;20051;-53
2020/12/20 09:57:13;;;;;;;59.10;31.45;;;;;;;;;;5094698;28;20027;-53
2020/12/20 09:59:39;;;;;;;55.78;31.27;;;;;;;;;;5090960;28;20115;-53
2020/12/20 10:02:05;;;;;;;64.32;32.63;;;;;;;;;;5094779;28;20074;-56
2020/12/20 10:04:34;;;;;;;55.97;29.17;;;;;;;;;;5094702;28;20024;-53
2020/12/20 10:07:00;;;;;;;64.30;33.50;;;;;;;;;;5094146;28;20016;-55
2020/12/20 10:09:26;;;;;;;59.45;32.75;;;;;;;;;;5094360;28;20046;-55
2020/12/20 10:11:52;;;;;;;66.30;35.20;;;;;;;;;;5094303;28;20103;-55
2020/12/20 10:14:18;;;;;;;59.97;30.23;;;;;;;;;;5094320;28;20086;-56
2020/12/20 10:16:44;;;;;;;61.78;32.92;;;;;;;;;;5094176;28;20693;-56
2020/12/20 10:19:10;;;;;;;68.93;34.50;;;;;;;;;;5094016;28;20036;-56
2020/12/20 10:21:36;;;;;;;56.45;30.48;;;;;;;;;;5094306;28;20118;-54
2020/12/20 10:24:02;;;;;;;52.55;28.48;;;;;;;;;;5094142;28;20027;-51
2020/12/20 10:26:28;;;;;;;54.28;28.98;;;;;;;;;;5093433;28;20031;-51
2020/12/20 10:28:55;;;;;;;72.18;38.92;;;;;;;;;;5092291;28;20035;-55
2020/12/20 10:31:21;;;;;;;69.03;36.00;;;;;;;;;;5093965;28;20027;-55
2020/12/20 10:33:47;;;;;;;86.47;44.55;;;;;;;;;;5093886;28;20024;-55
2020/12/20 10:36:14;;;;;;;65.72;36.10;;;;;;;;;;5094000;28;20016;-55
2020/12/20 10:38:40;;;;;;;83.10;45.72;;;;;;;;;;5093215;28;20036;-55
2020/12/20 10:41:06;;;;;;;85.28;43.03;;;;;;;;;;5093792;28;20425;-55
2020/12/20 10:43:32;;;;;;;68.75;36.08;;;;;;;;;;5093678;28;20355;-56
2020/12/20 10:45:58;;;;;;;72.57;36.25;;;;;;;;;;5093729;28;20486;-55
2020/12/20 10:48:24;;;;;;;97.65;50.58;;;;;;;;;;5093028;28;20539;-54
2020/12/20 10:50:50;;;;;;;115.80;58.97;;;;;;;;;;5093808;28;20020;-56
2020/12/20 10:53:16;;;;;;;84.85;44.60;;;;;;;;;;5093446;28;20050;-55
2020/12/20 10:55:42;;;;;;;82.10;45.30;;;;;;;;;;5093723;28;20051;-55
2020/12/20 10:58:08;;;;;;;57.20;30.65;;;;;;;;;;5093422;28;20020;-55
2020/12/20 11:00:34;;;;;;;89.95;47.92;;;;;;;;;;5093553;28;20111;-56
2020/12/20 11:03:00;;;;;;;70.32;39.83;;;;;;;;;;5093676;28;20023;-55
2020/12/20 11:05:28;;;;;;;64.43;33.42;;;;;;;;;;5093270;28;20028;-56
2020/12/20 11:07:54;;;;;;;81.88;39.67;;;;;;;;;;5092627;28;20065;-54
2020/12/20 11:10:20;;;;;;;49.30;26.42;;;;;;;;;;5093565;28;20020;-55
2020/12/20 11:12:46;;;;;;;52.35;28.67;;;;;;;;;;5093004;28;20020;-55
2020/12/20 11:15:12;;;;;;;65.22;36.10;;;;;;;;;;5086637;28;20109;-53
2020/12/20 11:17:38;;;;;;;49.10;26.23;;;;;;;;;;5093290;28;20048;-55
2020/12/20 11:20:04;;;;;;;49.33;25.05;;;;;;;;;;5076921;28;20463;-53
2020/12/20 11:22:30;;;;;;;55.38;28.90;;;;;;;;;;5075109;28;20043;-55
2020/12/20 11:24:56;;;;;;;47.15;26.27;;;;;;;;;;5075834;28;20094;-56
2020/12/20 11:27:22;;;;;;;57.35;27.70;;;;;;;;;;5090320;28;20028;-56
2020/12/20 11:29:48;;;;;;;72.25;41.40;;;;;;;;;;5092204;28;20020;-56
2020/12/20 11:32:14;;;;;;;58.70;33.10;;;;;;;;;;5091997;28;20024;-53
2020/12/20 11:34:41;;;;;;;50.92;28.10;;;;;;;;;;5091008;28;20384;-55
2020/12/20 11:37:07;;;;;;;63.65;34.50;;;;;;;;;;5092143;28;20024;-54
2020/12/20 11:39:33;;;;;;;55.47;28.88;;;;;;;;;;5091360;28;20070;-56
2020/12/20 11:41:59;;;;;;;55.45;27.88;;;;;;;;;;5091714;28;20069;-56
2020/12/20 11:44:25;;;;;;;64.22;35.45;;;;;;;;;;5091668;28;20037;-53
2020/12/20 11:46:51;;;;;;;116.70;64.20;;;;;;;;;;5092233;28;20035;-53
2020/12/20 11:49:17;;;;;;;94.38;54.28;;;;;;;;;;5091869;28;20024;-55
2020/12/20 11:51:45;;;;;;;84.95;46.25;;;;;;;;;;5092107;28;20065;-53
2020/12/20 11:54:11;;;;;;;95.93;51.28;;;;;;;;;;5077050;28;20067;-56
2020/12/20 11:56:37;;;;;;;66.97;34.75;;;;;;;;;;5069656;28;20025;-55
2020/12/20 11:59:03;;;;;;;67.03;34.30;;;;;;;;;;5071444;28;20032;-56
2020/12/20 12:01:30;;;;;;;62.03;31.83;;;;;;;;;;5071294;28;20024;-58
2020/12/20 12:03:57;;;;;;;60.17;31.17;;;;;;;;;;5059123;28;20025;-54
2020/12/20 12:06:23;;;;;;;57.85;34.15;;;;;;;;;;5068406;28;20028;-52
2020/12/20 12:08:49;;;;;;;54.17;30.50;;;;;;;;;;5070742;28;20119;-54
2020/12/20 12:11:21;;;;;;;109.53;59.70;;;;;;;;;;5071100;28;20031;-54
2020/12/20 12:13:48;;;;;;;63.55;34.67;;;;;;;;;;5070641;28;20052;-57
2020/12/20 12:16:16;;;;;;;50.72;28.77;;;;;;;;;;5071894;28;20020;-55
2020/12/20 12:18:42;;;;;;;56.58;29.35;;;;;;;;;;5070814;28;20040;-53
2020/12/20 12:21:12;;;;;;;63.92;33.88;;;;;;;;;;5071564;28;20386;-54
2020/12/20 12:23:39;;;;;;;56.13;30.60;;;;;;;;;;5070964;28;20052;-53
2020/12/20 12:26:05;;;;;;;54.55;32.25;;;;;;;;;;5070179;28;20021;-52
2020/12/20 12:28:31;;;;;;;50.08;28.13;;;;;;;;;;5070754;28;20045;-52
2020/12/20 12:30:57;;;;;;;48.45;27.58;;;;;;;;;;5071728;28;20538;-53
2020/12/20 12:33:23;;;;;;;48.45;28.23;;;;;;;;;;5071517;28;20032;-54
2020/12/20 12:35:49;;;;;;;59.50;33.88;;;;;;;;;;5071598;28;20020;-52
2020/12/20 12:38:15;;;;;;;82.95;43.47;;;;;;;;;;5070709;28;20056;-53
2020/12/20 12:40:41;;;;;;;48.50;27.45;;;;;;;;;;5071270;28;20028;-53
2020/12/20 12:43:07;;;;;;;42.15;24.63;;;;;;;;;;5070693;28;20020;-55
2020/12/20 12:45:33;;;;;;;46.58;25.83;;;;;;;;;;5071517;28;20438;-55
2020/12/20 12:48:00;;;;;;;49.42;29.10;;;;;;;;;;5071409;28;20392;-54
2020/12/20 12:50:26;;;;;;;43.33;25.77;;;;;;;;;;5072605;28;20032;-52
2020/12/20 12:52:52;;;;;;;45.58;27.45;;;;;;;;;;5077251;28;20041;-52
2020/12/20 12:55:19;;;;;;;45.08;25.90;;;;;;;;;;5076640;28;20085;-54
2020/12/20 12:57:45;;;;;;;43.40;26.30;;;;;;;;;;5076985;28;20464;-55
2020/12/20 13:00:11;;;;;;;46.05;26.92;;;;;;;;;;5088341;28;20048;-55
2020/12/20 13:02:37;;;;;;;38.97;25.23;;;;;;;;;;5087848;28;20367;-54
2020/12/20 13:05:03;;;;;;;49.88;28.67;;;;;;;;;;5080818;28;20021;-54
2020/12/20 13:07:29;;;;;;;47.80;28.67;;;;;;;;;;5094695;28;20055;-54
2020/12/20 13:09:55;;;;;;;51.25;29.70;;;;;;;;;;5090570;28;20023;-53
2020/12/20 13:12:21;;;;;;;42.50;26.98;;;;;;;;;;5076990;28;20040;-55
2020/12/20 13:14:48;;;;;;;46.22;27.85;;;;;;;;;;5088322;28;20597;-53
2020/12/20 13:17:14;;;;;;;46.38;27.83;;;;;;;;;;5081561;28;20521;-54
2020/12/20 13:19:40;;;;;;;49.88;28.13;;;;;;;;;;5093762;28;20039;-54
2020/12/20 13:22:06;;;;;;;44.72;27.67;;;;;;;;;;5087416;28;20012;-56
2020/12/20 13:24:32;;;;;;;48.42;28.05;;;;;;;;;;5077941;28;20440;-55
2020/12/20 13:26:58;;;;;;;50.00;28.38;;;;;;;;;;5058333;28;20396;-53
2020/12/20 13:29:24;;;;;;;49.70;28.08;;;;;;;;;;5077281;28;20035;-55
2020/12/20 13:31:50;;;;;;;56.28;31.73;;;;;;;;;;5077828;28;20024;-55
2020/12/20 13:34:16;;;;;;;56.50;30.52;;;;;;;;;;5077755;28;20070;-54
2020/12/20 13:36:42;;;;;;;63.88;36.30;;;;;;;;;;5077855;28;20406;-55
2020/12/20 13:39:08;;;;;;;54.90;29.58;;;;;;;;;;5077648;28;20071;-53
2020/12/20 13:41:35;;;;;;;60.75;34.92;;;;;;;;;;5077773;28;20025;-54
2020/12/20 13:44:01;;;;;;;49.85;28.55;;;;;;;;;;5077450;28;20032;-53
2020/12/20 13:46:27;;;;;;;57.70;33.03;;;;;;;;;;5077248;28;20047;-55
2020/12/20 13:48:53;;;;;;;61.65;34.15;;;;;;;;;;5075428;28;20029;-55
2020/12/20 13:51:19;;;;;;;58.35;33.92;;;;;;;;;;5077152;28;20020;-54
2020/12/20 13:53:45;;;;;;;55.45;30.90;;;;;;;;;;5086236;28;20076;-54
2020/12/20 13:56:11;;;;;;;54.08;31.58;;;;;;;;;;5075045;28;20037;-55
2020/12/20 13:58:38;;;;;;;53.10;30.95;;;;;;;;;;5076472;28;20043;-53
2020/12/20 14:01:04;;;;;;;173.43;103.25;;;;;;;;;;5077289;28;20027;-53
2020/12/20 14:03:30;;;;;;;52.03;31.75;;;;;;;;;;5073018;28;20050;-54
2020/12/20 14:05:56;;;;;;;47.97;27.90;;;;;;;;;;5085187;28;20021;-54
2020/12/20 14:08:22;;;;;;;45.45;28.02;;;;;;;;;;5092951;28;20103;-54
2020/12/20 14:10:49;;;;;;;44.88;26.35;;;;;;;;;;5075809;28;20020;-55
2020/12/20 14:13:15;;;;;;;49.47;28.38;;;;;;;;;;5072058;28;20024;-53
2020/12/20 14:15:41;;;;;;;52.85;30.85;;;;;;;;;;5074326;28;20356;-55
2020/12/20 14:18:07;;;;;;;48.75;28.70;;;;;;;;;;5073523;28;20444;-55